Terminal Aerodrome Forecast
Issued by NWS Omaha/Valley, NE

Home | Current Version | Previous Version | Text Only | Print | Product List | Glossary Off
Versions: 1 2 3 4 5 6 7 8 9 10 11 12 13 14 15 16 17 18 19 20 21 22 23 24 25 26 27 28 29 30 31 32 33 34 35 36 37 38 39 40

000
FTUS43 KOAX 191140
TAFOFK
TAF
KOFK 191140Z 1912/2012 36013KT P6SM VCSH OVC050
      TEMPO 1912/1915 VRB15G25KT 4SM -TSRA BR OVC012CB
     FM191500 01015KT P6SM -SHRA OVC015
     FM191800 01013KT P6SM VCSH OVC025
     FM192100 01015G20KT P6SM OVC015
     FM200000 01011KT P6SM OVC008=

USA.gov is the U.S. government's official web portal to all federal, state and local government web resources and services.